createdAt,value
2023-01-23T00:01:06.498Z,102479.66
2023-01-23T00:03:34.091Z,102475.69
2023-01-23T00:06:02.391Z,102480.44
2023-01-23T00:08:29.193Z,102487.81
2023-01-23T00:10:56.044Z,102480.03
2023-01-23T00:13:22.887Z,102488.78
2023-01-23T00:15:49.559Z,102494.81
2023-01-23T00:18:16.303Z,102488.91
2023-01-23T00:20:43.272Z,102488.53
2023-01-23T00:23:11.006Z,102494.09
2023-01-23T00:25:37.830Z,102489.06
2023-01-23T00:28:04.608Z,102487.28
2023-01-23T00:30:32.428Z,102483.97
2023-01-23T00:32:59.141Z,102485.00
2023-01-23T00:35:26.411Z,102478.81
2023-01-23T00:37:54.666Z,102482.53
2023-01-23T00:40:21.858Z,102476.97
2023-01-23T00:42:48.860Z,102481.06
2023-01-23T00:45:16.436Z,102474.91
2023-01-23T00:47:43.073Z,102478.19
2023-01-23T00:50:10.700Z,102480.09
2023-01-23T00:52:37.285Z,102477.59
2023-01-23T00:55:05.405Z,102482.78
2023-01-23T00:57:31.986Z,102478.38
2023-01-23T00:59:58.620Z,102487.91
2023-01-23T01:02:25.549Z,102487.09
2023-01-23T01:04:52.951Z,102494.72
2023-01-23T01:07:19.491Z,102492.78
2023-01-23T01:09:47.229Z,102496.00
2023-01-23T01:12:15.399Z,102485.78
2023-01-23T01:14:42.005Z,102499.56
2023-01-23T01:17:08.572Z,102500.06
2023-01-23T01:19:35.132Z,102495.53
2023-01-23T01:22:01.932Z,102497.19
2023-01-23T01:24:28.485Z,102512.84
2023-01-23T01:26:55.102Z,102515.44
2023-01-23T01:29:23.237Z,102517.25
2023-01-23T01:31:49.982Z,102520.00
2023-01-23T01:34:16.617Z,102517.44
2023-01-23T01:36:43.248Z,102528.28
2023-01-23T01:39:09.885Z,102517.97
2023-01-23T01:41:36.679Z,102523.66
2023-01-23T01:44:03.580Z,102530.50
2023-01-23T01:46:30.890Z,102528.97
2023-01-23T01:49:21.439Z,102525.59
2023-01-23T01:52:15.495Z,102531.53
2023-01-23T01:55:02.015Z,102528.31
2023-01-23T01:57:33.918Z,102532.22
2023-01-23T02:00:08.936Z,102537.47
2023-01-23T02:03:01.288Z,102532.41
2023-01-23T02:05:33.036Z,102531.75
2023-01-23T02:08:28.412Z,102530.75
2023-01-23T02:10:55.235Z,102539.25
2023-01-23T02:13:23.652Z,102531.41
2023-01-23T02:15:51.386Z,102529.91
2023-01-23T02:18:19.027Z,102526.94
2023-01-23T02:20:47.382Z,102521.53
2023-01-23T02:23:23.072Z,102524.00
2023-01-23T02:25:53.691Z,102526.44
2023-01-23T02:28:21.092Z,102530.75
2023-01-23T02:30:47.766Z,102525.34
2023-01-23T02:33:20.608Z,102517.16
2023-01-23T02:35:48.160Z,102518.97
2023-01-23T02:38:20.291Z,102512.72
2023-01-23T02:40:47.183Z,102520.66
2023-01-23T02:43:22.272Z,102523.03
2023-01-23T02:45:56.298Z,102511.44
2023-01-23T02:48:24.190Z,102501.63
2023-01-23T02:50:50.890Z,102498.94
2023-01-23T02:53:18.184Z,102497.84
2023-01-23T02:55:44.965Z,102499.56
2023-01-23T02:58:30.778Z,102504.69
2023-01-23T03:00:57.591Z,102493.38
2023-01-23T03:03:25.038Z,102491.22
2023-01-23T03:05:51.994Z,102500.53
2023-01-23T03:08:18.668Z,102501.91
2023-01-23T03:10:45.339Z,102497.66
2023-01-23T03:13:12.082Z,102503.97
2023-01-23T03:15:39.147Z,102508.75
2023-01-23T03:18:06.015Z,102509.41
2023-01-23T03:20:40.364Z,102520.69
2023-01-23T03:23:08.181Z,102515.25
2023-01-23T03:25:34.748Z,102518.50
2023-01-23T03:28:02.495Z,102524.00
2023-01-23T03:30:29.354Z,102527.06
2023-01-23T03:32:55.947Z,102525.34
2023-01-23T03:35:22.611Z,102533.75
2023-01-23T03:37:52.406Z,102533.38
2023-01-23T03:41:01.416Z,102549.00
2023-01-23T03:43:32.494Z,102551.09
2023-01-23T03:45:59.914Z,102543.88
2023-01-23T03:48:27.888Z,102550.00
2023-01-23T03:50:56.028Z,102547.72
2023-01-23T03:53:25.049Z,102544.28
2023-01-23T03:55:52.380Z,102546.66
2023-01-23T03:58:19.655Z,102550.09
2023-01-23T04:00:47.432Z,102550.00
2023-01-23T04:03:14.332Z,102551.47
2023-01-23T04:05:41.587Z,102556.84
2023-01-23T04:08:08.146Z,102552.22
2023-01-23T04:10:36.263Z,102548.16
2023-01-23T04:13:07.623Z,102548.16
2023-01-23T04:15:34.316Z,102548.00
2023-01-23T04:18:04.420Z,102553.41
2023-01-23T04:20:31.288Z,102548.09
2023-01-23T04:22:58.542Z,102554.16
2023-01-23T04:25:28.485Z,102554.09
2023-01-23T04:27:55.332Z,102554.28
2023-01-23T04:30:22.520Z,102554.41
2023-01-23T04:32:49.299Z,102557.88
2023-01-23T04:35:18.218Z,102558.13
2023-01-23T04:37:44.959Z,102561.38
2023-01-23T04:40:12.051Z,102560.47
2023-01-23T04:42:51.216Z,102561.41
2023-01-23T04:45:30.504Z,102557.25
2023-01-23T04:48:17.379Z,102553.97
2023-01-23T04:50:44.241Z,102554.78
2023-01-23T04:53:11.309Z,102550.72
2023-01-23T04:55:38.437Z,102538.81
2023-01-23T04:58:07.641Z,102537.53
2023-01-23T05:00:34.232Z,102546.56
2023-01-23T05:03:02.555Z,102552.75
2023-01-23T05:05:30.250Z,102552.53
2023-01-23T05:08:00.034Z,102550.88
2023-01-23T05:10:26.687Z,102551.34
2023-01-23T05:12:55.309Z,102549.88
2023-01-23T05:15:22.414Z,102554.78
2023-01-23T05:17:50.637Z,102558.75
2023-01-23T05:20:17.679Z,102567.56
2023-01-23T05:22:52.307Z,102559.66
2023-01-23T05:25:24.331Z,102562.75
2023-01-23T05:27:51.268Z,102565.38
2023-01-23T05:30:22.131Z,102571.28
2023-01-23T05:32:51.532Z,102575.69
2023-01-23T05:35:20.758Z,102579.41
2023-01-23T05:37:54.139Z,102571.03
2023-01-23T05:40:23.840Z,102581.13
2023-01-23T05:43:19.603Z,102583.97
2023-01-23T05:46:02.305Z,102580.19
2023-01-23T05:48:49.396Z,102577.56
2023-01-23T05:51:16.471Z,102581.94
2023-01-23T05:53:43.934Z,102583.97
2023-01-23T05:56:12.670Z,102585.69
2023-01-23T05:59:14.550Z,102591.84
2023-01-23T06:01:59.773Z,102593.03
2023-01-23T06:04:47.789Z,102591.28
2023-01-23T06:07:23.892Z,102593.75
2023-01-23T06:09:54.938Z,102607.94
2023-01-23T06:12:21.657Z,102601.69
2023-01-23T06:14:48.501Z,102600.72
2023-01-23T06:17:16.841Z,102601.69
2023-01-23T06:19:43.814Z,102599.09
2023-01-23T06:22:11.011Z,102603.22
2023-01-23T06:24:55.567Z,102604.81
2023-01-23T06:27:22.178Z,102609.31
2023-01-23T06:29:48.964Z,102613.38
2023-01-23T06:32:15.571Z,102607.50
2023-01-23T06:34:42.995Z,102610.69
2023-01-23T06:37:10.287Z,102602.47
2023-01-23T06:39:37.744Z,102613.81
2023-01-23T06:42:09.764Z,102618.78
2023-01-23T06:44:39.845Z,102615.81
2023-01-23T06:47:06.635Z,102620.28
2023-01-23T06:49:33.474Z,102631.28
2023-01-23T06:52:00.107Z,102631.00
2023-01-23T06:54:26.900Z,102631.84
2023-01-23T06:56:59.356Z,102631.94
2023-01-23T06:59:25.885Z,102634.38
2023-01-23T07:01:52.665Z,102639.19
2023-01-23T07:04:39.642Z,102641.75
2023-01-23T07:07:06.355Z,102649.47
2023-01-23T07:09:33.354Z,102653.81
2023-01-23T07:12:20.497Z,102654.28
2023-01-23T07:14:47.024Z,102652.50
2023-01-23T07:17:18.295Z,102665.28
2023-01-23T07:19:44.942Z,102668.72
2023-01-23T07:22:20.223Z,102665.38
2023-01-23T07:24:47.710Z,102673.66
2023-01-23T07:27:14.971Z,102661.66
2023-01-23T07:29:42.682Z,102666.72
2023-01-23T07:32:11.138Z,102669.34
2023-01-23T07:34:38.162Z,102678.03
2023-01-23T07:37:04.772Z,102669.34
2023-01-23T07:39:31.560Z,102680.78
2023-01-23T07:41:58.089Z,102677.31
2023-01-23T07:44:27.968Z,102677.44
2023-01-23T07:46:54.708Z,102684.09
2023-01-23T07:49:21.273Z,102681.66
2023-01-23T07:51:47.854Z,102693.22
2023-01-23T07:54:14.798Z,102682.66
2023-01-23T07:56:41.373Z,102691.63
2023-01-23T07:59:07.994Z,102684.09
2023-01-23T08:01:34.574Z,102682.88
2023-01-23T08:04:01.255Z,102693.56
2023-01-23T08:06:27.791Z,102685.97
2023-01-23T08:08:54.367Z,102685.63
2023-01-23T08:11:20.924Z,102678.03
2023-01-23T08:13:51.046Z,102688.75
2023-01-23T08:16:17.962Z,102678.50
2023-01-23T08:18:44.587Z,102695.56
2023-01-23T08:21:11.428Z,102688.59
2023-01-23T08:23:38.928Z,102689.88
2023-01-23T08:26:08.508Z,102699.75
2023-01-23T08:28:35.688Z,102702.97
2023-01-23T08:31:06.668Z,102698.84
2023-01-23T08:33:35.038Z,102698.00
2023-01-23T08:36:01.662Z,102705.22
2023-01-23T08:38:28.355Z,102698.72
2023-01-23T08:40:59.749Z,102709.00
2023-01-23T08:43:27.013Z,102708.06
2023-01-23T08:45:56.596Z,102709.81
2023-01-23T08:48:25.132Z,102721.75
2023-01-23T08:50:52.885Z,102729.84
2023-01-23T08:53:19.461Z,102728.56
2023-01-23T08:55:45.965Z,102718.44
2023-01-23T08:58:13.038Z,102723.19
2023-01-23T09:00:40.012Z,102720.69
2023-01-23T09:03:06.668Z,102715.06
2023-01-23T09:05:33.208Z,102711.75
2023-01-23T09:08:00.118Z,102718.53
2023-01-23T09:10:26.924Z,102720.88
2023-01-23T09:12:54.551Z,102725.41
2023-01-23T09:15:22.474Z,102716.38
2023-01-23T09:17:49.589Z,102723.13
2023-01-23T09:20:16.748Z,102721.63
2023-01-23T09:22:43.314Z,102727.97
2023-01-23T09:25:10.527Z,102728.91
2023-01-23T09:27:37.075Z,102735.06
2023-01-23T09:30:04.561Z,102737.66
2023-01-23T09:32:31.227Z,102731.69
2023-01-23T09:34:57.837Z,102725.66
2023-01-23T09:37:24.428Z,102729.22
2023-01-23T09:39:51.053Z,102737.56
2023-01-23T09:42:21.841Z,102736.38
2023-01-23T09:44:54.234Z,102743.69
2023-01-23T09:47:37.280Z,102742.78
2023-01-23T09:50:13.111Z,102749.13
2023-01-23T09:52:49.866Z,102741.31
2023-01-23T09:55:24.970Z,102750.75
2023-01-23T09:57:57.394Z,102748.03
2023-01-23T10:00:25.369Z,102741.81
2023-01-23T10:02:56.681Z,102743.63
2023-01-23T10:05:41.227Z,102733.72
2023-01-23T10:08:45.878Z,102740.28
2023-01-23T10:11:32.588Z,102743.03
2023-01-23T10:14:39.647Z,102737.19
2023-01-23T10:17:09.589Z,102740.16
2023-01-23T10:19:56.249Z,102749.56
2023-01-23T10:22:36.002Z,102753.59
2023-01-23T10:25:12.625Z,102753.31
2023-01-23T10:27:43.855Z,102751.88
2023-01-23T10:30:18.480Z,102742.75
2023-01-23T10:32:59.484Z,102740.31
2023-01-23T10:35:38.475Z,102736.44
2023-01-23T10:38:16.535Z,102746.19
2023-01-23T10:41:01.799Z,102744.53
2023-01-23T10:43:28.373Z,102739.56
2023-01-23T10:45:55.100Z,102742.94
2023-01-23T10:48:42.970Z,102741.06
2023-01-23T10:51:33.814Z,102750.38
2023-01-23T10:54:36.846Z,102748.22
2023-01-23T10:57:21.555Z,102732.69
2023-01-23T11:00:01.378Z,102736.31
2023-01-23T11:02:34.782Z,102733.63
2023-01-23T11:05:03.702Z,102734.19
2023-01-23T11:07:37.723Z,102725.66
2023-01-23T11:10:10.281Z,102722.47
2023-01-23T11:12:48.975Z,102726.78
2023-01-23T11:15:32.141Z,102720.09
2023-01-23T11:18:00.657Z,102717.56
2023-01-23T11:20:36.071Z,102727.53
2023-01-23T11:23:14.337Z,102725.34
2023-01-23T11:25:45.768Z,102717.66
2023-01-23T11:28:27.923Z,102727.25
2023-01-23T11:31:14.106Z,102734.97
2023-01-23T11:33:54.518Z,102721.97
2023-01-23T11:36:33.393Z,102733.28
2023-01-23T11:39:16.849Z,102725.59
2023-01-23T11:41:46.039Z,102719.41
2023-01-23T11:44:22.872Z,102725.91
2023-01-23T11:47:23.902Z,102728.38
2023-01-23T11:50:29.246Z,102731.91
2023-01-23T11:53:18.017Z,102747.59
2023-01-23T11:56:06.394Z,102737.00
2023-01-23T11:59:12.307Z,102732.06
2023-01-23T12:01:49.278Z,102723.47
2023-01-23T12:04:54.004Z,102718.72
2023-01-23T12:07:23.028Z,102708.06
2023-01-23T12:10:11.222Z,102718.38
2023-01-23T12:13:09.579Z,102719.72
2023-01-23T12:15:41.873Z,102718.84
2023-01-23T12:18:29.225Z,102721.66
2023-01-23T12:21:09.228Z,102719.59
2023-01-23T12:23:57.003Z,102728.81
2023-01-23T12:26:26.799Z,102720.75
2023-01-23T12:29:07.323Z,102724.06
2023-01-23T12:31:48.341Z,102718.50
2023-01-23T12:34:47.838Z,102726.34
2023-01-23T12:37:33.178Z,102724.78
2023-01-23T12:40:10.005Z,102722.91
2023-01-23T12:42:47.520Z,102720.19
2023-01-23T12:45:20.869Z,102716.16
2023-01-23T12:48:02.742Z,102719.75
2023-01-23T12:50:53.517Z,102719.91
2023-01-23T12:53:24.705Z,102718.53
2023-01-23T12:56:15.285Z,102715.63
2023-01-23T12:58:49.758Z,102717.59
2023-01-23T13:01:34.625Z,102719.88
2023-01-23T13:04:38.833Z,102719.09
2023-01-23T13:07:20.755Z,102717.84
2023-01-23T13:10:14.482Z,102725.50
2023-01-23T13:12:41.262Z,102718.97
2023-01-23T13:15:18.905Z,102723.81
2023-01-23T13:17:58.003Z,102708.41
2023-01-23T13:20:55.662Z,102710.22
2023-01-23T13:23:33.313Z,102710.94
2023-01-23T13:26:15.202Z,102722.41
2023-01-23T13:28:45.587Z,102718.59
2023-01-23T13:31:50.283Z,102723.13
2023-01-23T13:34:17.055Z,102715.13
2023-01-23T13:36:51.715Z,102721.50
2023-01-23T13:39:18.287Z,102717.28
2023-01-23T13:42:12.350Z,102723.31
2023-01-23T13:45:17.667Z,102725.63
2023-01-23T14:25:32.297Z,102744.28
2023-01-23T14:28:03.941Z,102735.53
2023-01-23T14:30:31.599Z,102745.63
2023-01-23T14:32:59.210Z,102745.69
2023-01-23T14:35:32.416Z,102745.31
2023-01-23T14:38:02.120Z,102746.78
2023-01-23T14:40:35.057Z,102746.47
2023-01-23T14:43:07.727Z,102751.88
2023-01-23T14:45:36.176Z,102743.66
2023-01-23T14:48:06.655Z,102751.56
2023-01-23T14:50:34.392Z,102749.22
2023-01-23T14:53:06.941Z,102748.84
2023-01-23T14:55:40.689Z,102754.63
2023-01-23T14:58:13.446Z,102745.09
2023-01-23T15:00:41.951Z,102748.34
2023-01-23T15:03:12.480Z,102751.94
2023-01-23T15:05:40.977Z,102752.59
2023-01-23T15:08:27.618Z,102760.66
2023-01-23T15:10:57.512Z,102755.25
2023-01-23T15:13:40.487Z,102762.22
2023-01-23T15:16:14.767Z,102753.66
2023-01-23T15:19:01.442Z,102754.91
2023-01-23T15:21:40.091Z,102750.69
2023-01-23T15:24:06.749Z,102757.09
2023-01-23T15:26:36.625Z,102757.84
2023-01-23T15:29:11.178Z,102761.50
2023-01-23T15:31:41.447Z,102755.25
2023-01-23T15:34:14.616Z,102751.75
2023-01-23T15:37:00.223Z,102747.19
2023-01-23T15:39:34.523Z,102751.72
2023-01-23T15:42:24.839Z,102756.19
2023-01-23T15:44:51.546Z,102749.13
2023-01-23T15:47:18.112Z,102749.69
2023-01-23T15:49:44.924Z,102746.88
2023-01-23T15:52:42.375Z,102733.75
2023-01-23T15:55:10.417Z,102738.44
2023-01-23T15:57:37.014Z,102735.94
2023-01-23T16:00:13.885Z,102738.13
2023-01-23T16:02:54.744Z,102736.88
2023-01-23T16:05:25.922Z,102727.09
2023-01-23T16:07:53.942Z,102726.38
2023-01-23T16:10:25.213Z,102734.09
2023-01-23T16:12:55.084Z,102732.56
2023-01-23T16:15:24.639Z,102718.44
2023-01-23T16:17:52.118Z,102723.16
2023-01-23T16:20:29.075Z,102715.06
2023-01-23T16:23:08.433Z,102711.94
2023-01-23T16:25:45.034Z,102715.41
2023-01-23T16:28:15.157Z,102722.97
2023-01-23T16:30:43.456Z,102730.41
2023-01-23T16:33:10.573Z,102730.44
2023-01-23T16:35:37.413Z,102726.19
2023-01-23T16:38:05.067Z,102731.91
2023-01-23T16:40:32.672Z,102722.28
2023-01-23T16:43:02.531Z,102724.13
2023-01-23T16:45:32.535Z,102728.53
2023-01-23T16:48:00.275Z,102729.69
2023-01-23T16:50:39.280Z,102732.94
2023-01-23T16:53:23.994Z,102726.78
2023-01-23T16:55:51.624Z,102735.84
2023-01-23T16:58:22.285Z,102740.34
2023-01-23T17:00:50.384Z,102733.31
2023-01-23T17:03:23.262Z,102737.25
2023-01-23T17:05:50.135Z,102740.97
2023-01-23T17:08:20.343Z,102736.84
2023-01-23T17:10:51.103Z,102742.63
2023-01-23T17:13:19.577Z,102734.19
2023-01-23T17:15:47.373Z,102744.28
2023-01-23T17:18:26.265Z,102737.97
2023-01-23T17:20:56.412Z,102734.34
2023-01-23T17:23:25.389Z,102728.97
2023-01-23T17:26:01.531Z,102735.56
2023-01-23T17:28:29.081Z,102743.38
2023-01-23T17:31:00.244Z,102753.38
2023-01-23T17:33:31.402Z,102745.31
2023-01-23T17:36:00.259Z,102738.38
2023-01-23T17:38:31.251Z,102739.72
2023-01-23T17:40:57.901Z,102736.94
2023-01-23T17:43:24.644Z,102740.78
2023-01-23T17:45:52.263Z,102737.66
2023-01-23T17:48:29.023Z,102741.91
2023-01-23T17:50:55.960Z,102736.16
2023-01-23T17:53:23.937Z,102731.88
2023-01-23T17:55:51.445Z,102738.72
2023-01-23T17:58:19.351Z,102733.19
2023-01-23T18:00:49.017Z,102737.25
2023-01-23T18:03:19.594Z,102741.06
2023-01-23T18:05:46.249Z,102741.63
2023-01-23T18:08:18.826Z,102743.47
2023-01-23T18:10:48.072Z,102749.19
2023-01-23T18:13:14.774Z,102743.34
2023-01-23T18:16:00.021Z,102747.63
2023-01-23T18:18:37.339Z,102746.47
2023-01-23T18:21:05.845Z,102762.91
2023-01-23T18:23:37.133Z,102750.91
2023-01-23T18:26:34.937Z,102749.44
2023-01-23T18:29:40.625Z,102760.41
2023-01-23T18:32:39.109Z,102763.38
2023-01-23T18:35:30.435Z,102771.84
2023-01-23T18:38:06.671Z,102770.78
2023-01-23T18:41:06.395Z,102772.53
2023-01-23T18:43:33.139Z,102774.47
2023-01-23T18:45:59.919Z,102767.88
2023-01-23T18:48:26.856Z,102776.31
2023-01-23T18:51:36.419Z,102773.31
2023-01-23T18:54:02.972Z,102772.47
2023-01-23T18:57:07.545Z,102767.19
2023-01-23T18:59:40.032Z,102774.28
2023-01-23T19:02:37.552Z,102781.31
2023-01-23T19:05:10.378Z,102786.16
2023-01-23T19:07:37.646Z,102792.38
2023-01-23T19:10:05.598Z,102798.19
2023-01-23T19:12:44.866Z,102790.91
2023-01-23T19:15:53.316Z,102798.25
2023-01-23T19:18:45.782Z,102788.34
2023-01-23T19:21:28.139Z,102796.09
2023-01-23T19:24:01.821Z,102786.97
2023-01-23T19:26:31.975Z,102781.31
2023-01-23T19:29:08.492Z,102782.41
2023-01-23T19:31:47.481Z,102782.16
2023-01-23T19:34:22.477Z,102779.88
2023-01-23T19:36:49.056Z,102790.69
2023-01-23T19:39:15.696Z,102801.53
2023-01-23T19:41:45.509Z,102796.91
2023-01-23T19:44:14.476Z,102801.81
2023-01-23T19:46:42.448Z,102797.94
2023-01-23T19:49:10.745Z,102793.56
2023-01-23T19:51:38.629Z,102793.38
2023-01-23T19:54:09.185Z,102800.56
2023-01-23T19:56:36.607Z,102800.72
2023-01-23T19:59:03.259Z,102800.78
2023-01-23T20:01:39.965Z,102793.13
2023-01-23T20:04:11.891Z,102796.31
2023-01-23T20:06:40.404Z,102794.19
2023-01-23T20:09:08.139Z,102801.75
2023-01-23T20:11:36.075Z,102813.22
2023-01-23T20:14:03.233Z,102813.34
2023-01-23T20:16:30.143Z,102813.41
2023-01-23T20:18:56.761Z,102812.53
2023-01-23T20:21:25.081Z,102821.97
2023-01-23T20:23:52.143Z,102809.88
2023-01-23T20:26:21.328Z,102823.03
2023-01-23T20:28:49.098Z,102821.31
2023-01-23T20:31:16.789Z,102833.00
2023-01-23T20:33:43.541Z,102820.50
2023-01-23T20:36:13.812Z,102823.38
2023-01-23T20:38:40.725Z,102824.94
2023-01-23T20:41:15.987Z,102820.28
2023-01-23T20:43:43.320Z,102820.78
2023-01-23T20:46:11.213Z,102827.09
2023-01-23T20:48:39.608Z,102825.84
2023-01-23T20:51:09.662Z,102821.56
2023-01-23T20:53:39.308Z,102811.75
2023-01-23T20:56:09.385Z,102816.31
2023-01-23T20:59:05.613Z,102809.28
2023-01-23T21:01:54.963Z,102803.97
2023-01-23T21:04:23.753Z,102801.66
2023-01-23T21:06:50.268Z,102793.59
2023-01-23T21:09:17.405Z,102794.28
2023-01-23T21:11:44.284Z,102789.97
2023-01-23T21:14:11.113Z,102791.69
2023-01-23T21:16:37.631Z,102798.63
2023-01-23T21:19:04.456Z,102804.06
2023-01-23T21:21:31.167Z,102801.84
2023-01-23T21:23:57.995Z,102803.94
2023-01-23T21:26:26.897Z,102802.59
2023-01-23T21:28:55.294Z,102807.47
2023-01-23T21:31:24.852Z,102801.22
2023-01-23T21:33:51.638Z,102795.88
2023-01-23T21:36:25.025Z,102798.28
2023-01-23T21:38:52.883Z,102798.56
2023-01-23T21:41:20.135Z,102802.50
2023-01-23T21:43:47.137Z,102802.66
2023-01-23T21:46:14.491Z,102797.81
2023-01-23T21:48:41.493Z,102801.03
2023-01-23T21:51:10.603Z,102796.84
2023-01-23T21:53:38.504Z,102804.19
2023-01-23T21:56:06.170Z,102807.25
2023-01-23T21:58:33.661Z,102811.38
2023-01-23T22:01:21.276Z,102807.91
2023-01-23T22:03:48.225Z,102809.16
2023-01-23T22:06:15.294Z,102816.56
2023-01-23T22:08:42.044Z,102817.00
2023-01-23T22:11:10.040Z,102806.78
2023-01-23T22:13:37.294Z,102805.81
2023-01-23T22:16:04.599Z,102800.09
2023-01-23T22:18:32.372Z,102800.34
2023-01-23T22:21:01.613Z,102803.72
2023-01-23T22:23:29.407Z,102794.22
2023-01-23T22:25:57.587Z,102801.88
2023-01-23T22:28:24.460Z,102809.97
2023-01-23T22:30:51.103Z,102800.13
2023-01-23T22:33:18.137Z,102807.91
2023-01-23T22:35:45.282Z,102807.59
2023-01-23T22:38:15.394Z,102812.63
2023-01-23T22:40:42.630Z,102815.19
2023-01-23T22:43:09.768Z,102807.81
2023-01-23T22:45:36.766Z,102809.13
2023-01-23T22:48:03.487Z,102809.31
2023-01-23T22:50:30.154Z,102803.25
2023-01-23T22:52:56.655Z,102809.66
2023-01-23T22:55:23.638Z,102808.72
2023-01-23T22:57:52.880Z,102794.84
2023-01-23T23:00:20.372Z,102800.91
2023-01-23T23:02:46.957Z,102797.28
2023-01-23T23:05:13.867Z,102802.06
2023-01-23T23:07:40.564Z,102799.53
2023-01-23T23:10:08.749Z,102796.91
2023-01-23T23:12:35.282Z,102790.56
2023-01-23T23:15:02.720Z,102804.81
2023-01-23T23:17:29.784Z,102800.34
2023-01-23T23:19:56.568Z,102794.28
2023-01-23T23:22:23.161Z,102810.97
2023-01-23T23:24:49.819Z,102801.34
2023-01-23T23:27:16.499Z,102802.84
2023-01-23T23:29:43.202Z,102816.06
2023-01-23T23:32:09.718Z,102812.19
2023-01-23T23:34:37.385Z,102803.59
2023-01-23T23:37:04.423Z,102804.78
2023-01-23T23:39:31.031Z,102809.84
2023-01-23T23:41:58.426Z,102812.22
2023-01-23T23:44:25.056Z,102818.44
2023-01-23T23:46:51.577Z,102808.13
2023-01-23T23:49:18.209Z,102803.19
2023-01-23T23:51:44.703Z,102815.63
2023-01-23T23:54:11.296Z,102821.44
2023-01-23T23:56:37.823Z,102816.53
2023-01-23T23:59:04.533Z,102827.66
